Cresthill, Illinois
Current Conditions -  °F | °C
As of 4:35 AM on Thursday 27 Nov 2014 (Local Time) from KLOT Reporting Station
Overcast Overcast  
Wind Chill: 14°   Ceiling: 7500
Heat Index: 22°   Visibility: 7mi
Dew Point: 18°   Wind: 7mph
Humidity: 85%   Direction: 330°NNW
Pressure: 30.26"   Gusts: NA
Location:  41.6°N, 88.12°W
Report Text: KLOT 271035Z AUTO 33006KT 7SM BKN075 BKN085 OVC110 M05/M08 A3026 RMK AO2 T10551077
Loading
Personal Weather Stations






























Interactive Weather Map New forecast layout! Learn more

10-Day Weather Forecast

Advertisements
Track Severe Weather on mobile